Port Huron Township, Michigan
Current Conditions -  °F | °C
As of 5:36 PM on Monday 24 Nov 2014 (Local Time) from KPHN Reporting Station
Overcast Overcast  
Wind Chill: 31°   Ceiling: 2600
Heat Index: 41°   Visibility: 10mi
Dew Point: 32°   Wind: 22mph
Humidity: 70%   Direction: 210°SSW
Pressure: 29.42"   Gusts: 33mph
Location:  42.9793°N, 82.4643°W
Report Text: KPHN 242236Z AUTO 21019G29KT 10SM OVC026 05/00 A2942 RMK AO2
Loading
Personal Weather Stations






























Interactive Weather Map New forecast layout! Learn more

10-Day Weather Forecast

Advertisements
Track Severe Weather on mobile